sensor_id;sensor_type;location;lat;lon;timestamp;P1;durP1;ratioP1;P2;durP2;ratioP2
42194;SDS011;27863;49.440;11.102;2023-11-21T00:01:37;1.50;;;1.10;;
42194;SDS011;27863;49.440;11.102;2023-11-21T00:04:38;2.10;;;1.00;;
42194;SDS011;27863;49.440;11.102;2023-11-21T00:07:38;2.43;;;0.83;;
42194;SDS011;27863;49.440;11.102;2023-11-21T00:10:39;4.97;;;1.60;;
42194;SDS011;27863;49.440;11.102;2023-11-21T00:13:40;2.57;;;1.23;;
42194;SDS011;27863;49.440;11.102;2023-11-21T00:16:40;1.70;;;0.90;;
42194;SDS011;27863;49.440;11.102;2023-11-21T00:19:41;1.33;;;1.03;;
42194;SDS011;27863;49.440;11.102;2023-11-21T00:22:43;0.97;;;0.90;;
42194;SDS011;27863;49.440;11.102;2023-11-21T00:25:43;1.23;;;1.00;;
42194;SDS011;27863;49.440;11.102;2023-11-21T00:28:44;2.90;;;0.90;;
42194;SDS011;27863;49.440;11.102;2023-11-21T00:31:45;1.37;;;0.90;;
42194;SDS011;27863;49.440;11.102;2023-11-21T00:34:46;1.53;;;1.10;;
42194;SDS011;27863;49.440;11.102;2023-11-21T00:37:46;3.47;;;1.13;;
42194;SDS011;27863;49.440;11.102;2023-11-21T00:40:49;2.27;;;0.90;;
42194;SDS011;27863;49.440;11.102;2023-11-21T00:43:50;1.20;;;0.80;;
42194;SDS011;27863;49.440;11.102;2023-11-21T00:46:50;1.33;;;1.10;;
42194;SDS011;27863;49.440;11.102;2023-11-21T00:49:51;0.63;;;0.63;;
42194;SDS011;27863;49.440;11.102;2023-11-21T00:52:53;1.37;;;0.80;;
42194;SDS011;27863;49.440;11.102;2023-11-21T00:55:53;1.50;;;0.77;;
42194;SDS011;27863;49.440;11.102;2023-11-21T00:58:57;1.93;;;0.97;;
42194;SDS011;27863;49.440;11.102;2023-11-21T01:01:57;0.70;;;0.70;;
42194;SDS011;27863;49.440;11.102;2023-11-21T01:05:00;3.50;;;1.00;;
42194;SDS011;27863;49.440;11.102;2023-11-21T01:08:01;2.83;;;1.10;;
42194;SDS011;27863;49.440;11.102;2023-11-21T01:11:01;1.43;;;1.10;;
42194;SDS011;27863;49.440;11.102;2023-11-21T01:14:02;2.13;;;1.10;;
42194;SDS011;27863;49.440;11.102;2023-11-21T01:17:05;3.70;;;1.40;;
42194;SDS011;27863;49.440;11.102;2023-11-21T01:20:05;3.03;;;1.40;;
42194;SDS011;27863;49.440;11.102;2023-11-21T01:23:14;1.93;;;1.00;;
42194;SDS011;27863;49.440;11.102;2023-11-21T01:26:14;1.47;;;1.23;;
42194;SDS011;27863;49.440;11.102;2023-11-21T01:29:15;3.80;;;1.43;;
42194;SDS011;27863;49.440;11.102;2023-11-21T01:32:15;4.33;;;1.17;;
42194;SDS011;27863;49.440;11.102;2023-11-21T01:35:16;1.37;;;0.90;;
42194;SDS011;27863;49.440;11.102;2023-11-21T01:38:17;2.47;;;1.40;;
42194;SDS011;27863;49.440;11.102;2023-11-21T01:41:18;2.73;;;1.47;;
42194;SDS011;27863;49.440;11.102;2023-11-21T01:44:18;1.20;;;0.73;;
42194;SDS011;27863;49.440;11.102;2023-11-21T01:47:19;1.63;;;1.07;;
42194;SDS011;27863;49.440;11.102;2023-11-21T01:50:21;3.77;;;1.20;;
42194;SDS011;27863;49.440;11.102;2023-11-21T01:53:23;1.10;;;1.00;;
42194;SDS011;27863;49.440;11.102;2023-11-21T01:56:25;1.97;;;1.10;;
42194;SDS011;27863;49.440;11.102;2023-11-21T01:59:26;2.10;;;1.20;;
42194;SDS011;27863;49.440;11.102;2023-11-21T02:02:27;1.77;;;1.20;;
42194;SDS011;27863;49.440;11.102;2023-11-21T02:05:28;1.03;;;0.80;;
42194;SDS011;27863;49.440;11.102;2023-11-21T02:08:29;1.40;;;1.30;;
42194;SDS011;27863;49.440;11.102;2023-11-21T02:11:33;1.47;;;1.03;;
42194;SDS011;27863;49.440;11.102;2023-11-21T02:14:35;3.43;;;1.10;;
42194;SDS011;27863;49.440;11.102;2023-11-21T02:17:36;3.43;;;0.83;;
42194;SDS011;27863;49.440;11.102;2023-11-21T02:20:37;2.17;;;0.90;;
42194;SDS011;27863;49.440;11.102;2023-11-21T02:23:39;1.70;;;0.70;;
42194;SDS011;27863;49.440;11.102;2023-11-21T02:26:44;2.03;;;1.40;;
42194;SDS011;27863;49.440;11.102;2023-11-21T02:29:46;1.87;;;1.77;;
42194;SDS011;27863;49.440;11.102;2023-11-21T02:32:46;3.37;;;1.30;;
42194;SDS011;27863;49.440;11.102;2023-11-21T02:35:47;0.60;;;0.60;;
42194;SDS011;27863;49.440;11.102;2023-11-21T02:38:47;1.57;;;0.70;;
42194;SDS011;27863;49.440;11.102;2023-11-21T02:41:48;1.53;;;1.00;;
42194;SDS011;27863;49.440;11.102;2023-11-21T02:44:49;2.13;;;1.10;;
42194;SDS011;27863;49.440;11.102;2023-11-21T02:47:50;0.80;;;0.80;;
42194;SDS011;27863;49.440;11.102;2023-11-21T02:50:50;2.23;;;1.23;;
42194;SDS011;27863;49.440;11.102;2023-11-21T02:53:53;1.30;;;1.20;;
42194;SDS011;27863;49.440;11.102;2023-11-21T02:56:53;1.50;;;1.10;;
42194;SDS011;27863;49.440;11.102;2023-11-21T02:59:54;2.30;;;1.00;;
42194;SDS011;27863;49.440;11.102;2023-11-21T03:02:55;1.03;;;0.93;;
42194;SDS011;27863;49.440;11.102;2023-11-21T03:05:56;1.40;;;1.00;;
42194;SDS011;27863;49.440;11.102;2023-11-21T03:08:57;2.80;;;1.00;;
42194;SDS011;27863;49.440;11.102;2023-11-21T03:11:59;1.90;;;1.00;;
42194;SDS011;27863;49.440;11.102;2023-11-21T03:14:59;2.37;;;1.03;;
42194;SDS011;27863;49.440;11.102;2023-11-21T03:18:01;1.23;;;1.13;;
42194;SDS011;27863;49.440;11.102;2023-11-21T03:21:07;1.30;;;1.10;;
42194;SDS011;27863;49.440;11.102;2023-11-21T03:24:09;1.40;;;0.93;;
42194;SDS011;27863;49.440;11.102;2023-11-21T03:27:13;4.53;;;1.10;;
42194;SDS011;27863;49.440;11.102;2023-11-21T03:30:15;1.00;;;0.90;;
42194;SDS011;27863;49.440;11.102;2023-11-21T03:33:16;3.40;;;1.20;;
42194;SDS011;27863;49.440;11.102;2023-11-21T03:36:17;2.90;;;1.10;;
42194;SDS011;27863;49.440;11.102;2023-11-21T03:39:21;0.80;;;0.80;;
42194;SDS011;27863;49.440;11.102;2023-11-21T03:42:23;2.37;;;1.10;;
42194;SDS011;27863;49.440;11.102;2023-11-21T03:45:25;1.47;;;1.00;;
42194;SDS011;27863;49.440;11.102;2023-11-21T03:48:26;1.27;;;1.13;;
42194;SDS011;27863;49.440;11.102;2023-11-21T03:51:26;3.60;;;1.47;;
42194;SDS011;27863;49.440;11.102;2023-11-21T03:54:27;2.03;;;0.90;;
42194;SDS011;27863;49.440;11.102;2023-11-21T03:57:27;2.97;;;1.63;;
42194;SDS011;27863;49.440;11.102;2023-11-21T04:00:28;4.53;;;1.30;;
42194;SDS011;27863;49.440;11.102;2023-11-21T04:03:28;1.40;;;1.10;;
42194;SDS011;27863;49.440;11.102;2023-11-21T04:06:28;1.40;;;1.20;;
42194;SDS011;27863;49.440;11.102;2023-11-21T04:09:29;1.47;;;1.30;;
42194;SDS011;27863;49.440;11.102;2023-11-21T04:12:30;1.70;;;1.20;;
42194;SDS011;27863;49.440;11.102;2023-11-21T04:15:30;2.03;;;1.43;;
42194;SDS011;27863;49.440;11.102;2023-11-21T04:18:31;1.23;;;0.83;;
42194;SDS011;27863;49.440;11.102;2023-11-21T04:21:31;1.60;;;1.33;;
42194;SDS011;27863;49.440;11.102;2023-11-21T04:24:33;2.30;;;1.40;;
42194;SDS011;27863;49.440;11.102;2023-11-21T04:27:34;2.37;;;1.37;;
42194;SDS011;27863;49.440;11.102;2023-11-21T04:30:34;2.20;;;1.40;;
42194;SDS011;27863;49.440;11.102;2023-11-21T04:33:35;1.97;;;1.77;;
42194;SDS011;27863;49.440;11.102;2023-11-21T04:36:35;5.93;;;1.40;;
42194;SDS011;27863;49.440;11.102;2023-11-21T04:39:36;2.97;;;1.40;;
42194;SDS011;27863;49.440;11.102;2023-11-21T04:42:36;1.40;;;1.10;;
42194;SDS011;27863;49.440;11.102;2023-11-21T04:45:37;5.70;;;1.50;;
42194;SDS011;27863;49.440;11.102;2023-11-21T04:48:38;1.83;;;1.20;;
42194;SDS011;27863;49.440;11.102;2023-11-21T04:51:40;1.63;;;1.37;;
42194;SDS011;27863;49.440;11.102;2023-11-21T04:54:40;2.33;;;1.30;;
42194;SDS011;27863;49.440;11.102;2023-11-21T04:57:41;2.53;;;1.63;;
42194;SDS011;27863;49.440;11.102;2023-11-21T05:00:41;4.27;;;2.03;;
42194;SDS011;27863;49.440;11.102;2023-11-21T05:03:42;2.13;;;1.37;;
42194;SDS011;27863;49.440;11.102;2023-11-21T05:06:43;3.97;;;1.80;;
42194;SDS011;27863;49.440;11.102;2023-11-21T05:09:44;2.47;;;1.50;;
42194;SDS011;27863;49.440;11.102;2023-11-21T05:12:46;1.43;;;1.33;;
42194;SDS011;27863;49.440;11.102;2023-11-21T05:15:46;2.87;;;1.57;;
42194;SDS011;27863;49.440;11.102;2023-11-21T05:18:47;1.57;;;1.37;;
42194;SDS011;27863;49.440;11.102;2023-11-21T05:21:52;2.13;;;1.50;;
42194;SDS011;27863;49.440;11.102;2023-11-21T05:24:52;3.23;;;1.73;;
42194;SDS011;27863;49.440;11.102;2023-11-21T05:27:53;1.77;;;1.50;;
42194;SDS011;27863;49.440;11.102;2023-11-21T05:30:55;2.43;;;1.40;;
42194;SDS011;27863;49.440;11.102;2023-11-21T05:33:56;2.53;;;1.57;;
42194;SDS011;27863;49.440;11.102;2023-11-21T05:36:57;7.17;;;1.30;;
42194;SDS011;27863;49.440;11.102;2023-11-21T05:39:59;2.40;;;1.50;;
42194;SDS011;27863;49.440;11.102;2023-11-21T05:43:06;2.60;;;1.47;;
42194;SDS011;27863;49.440;11.102;2023-11-21T05:46:09;1.50;;;1.40;;
42194;SDS011;27863;49.440;11.102;2023-11-21T05:49:09;1.60;;;1.50;;
42194;SDS011;27863;49.440;11.102;2023-11-21T05:52:11;2.83;;;1.40;;
42194;SDS011;27863;49.440;11.102;2023-11-21T05:55:13;2.57;;;1.70;;
42194;SDS011;27863;49.440;11.102;2023-11-21T05:58:16;2.57;;;1.90;;
42194;SDS011;27863;49.440;11.102;2023-11-21T06:01:18;2.97;;;1.50;;
42194;SDS011;27863;49.440;11.102;2023-11-21T06:04:18;2.47;;;1.60;;
42194;SDS011;27863;49.440;11.102;2023-11-21T06:07:22;2.73;;;2.23;;
42194;SDS011;27863;49.440;11.102;2023-11-21T06:10:23;2.97;;;1.67;;
42194;SDS011;27863;49.440;11.102;2023-11-21T06:13:23;4.07;;;1.97;;
42194;SDS011;27863;49.440;11.102;2023-11-21T06:16:24;6.67;;;2.10;;
42194;SDS011;27863;49.440;11.102;2023-11-21T06:19:25;4.63;;;1.77;;
42194;SDS011;27863;49.440;11.102;2023-11-21T06:22:25;2.10;;;1.70;;
42194;SDS011;27863;49.440;11.102;2023-11-21T06:25:26;2.43;;;1.57;;
42194;SDS011;27863;49.440;11.102;2023-11-21T06:28:27;2.53;;;2.13;;
42194;SDS011;27863;49.440;11.102;2023-11-21T06:31:27;3.00;;;1.90;;
42194;SDS011;27863;49.440;11.102;2023-11-21T06:34:28;3.00;;;1.80;;
42194;SDS011;27863;49.440;11.102;2023-11-21T06:37:28;3.27;;;2.20;;
42194;SDS011;27863;49.440;11.102;2023-11-21T06:40:29;2.33;;;2.10;;
42194;SDS011;27863;49.440;11.102;2023-11-21T06:43:29;2.40;;;2.20;;
42194;SDS011;27863;49.440;11.102;2023-11-21T06:46:31;2.63;;;2.43;;
42194;SDS011;27863;49.440;11.102;2023-11-21T06:49:31;2.77;;;1.90;;
42194;SDS011;27863;49.440;11.102;2023-11-21T06:52:32;2.97;;;2.00;;
42194;SDS011;27863;49.440;11.102;2023-11-21T06:55:33;3.03;;;2.10;;
42194;SDS011;27863;49.440;11.102;2023-11-21T06:58:33;6.43;;;2.10;;
42194;SDS011;27863;49.440;11.102;2023-11-21T07:01:34;2.47;;;2.27;;
42194;SDS011;27863;49.440;11.102;2023-11-21T07:04:39;2.60;;;2.40;;
42194;SDS011;27863;49.440;11.102;2023-11-21T07:07:39;3.83;;;2.40;;
42194;SDS011;27863;49.440;11.102;2023-11-21T07:10:41;3.37;;;2.23;;
42194;SDS011;27863;49.440;11.102;2023-11-21T07:13:42;4.27;;;2.30;;
42194;SDS011;27863;49.440;11.102;2023-11-21T07:16:44;3.13;;;2.67;;
42194;SDS011;27863;49.440;11.102;2023-11-21T07:19:44;3.17;;;2.40;;
42194;SDS011;27863;49.440;11.102;2023-11-21T07:22:45;3.50;;;2.83;;
42194;SDS011;27863;49.440;11.102;2023-11-21T07:25:46;4.73;;;4.33;;
42194;SDS011;27863;49.440;11.102;2023-11-21T07:28:47;3.20;;;2.90;;
42194;SDS011;27863;49.440;11.102;2023-11-21T07:31:47;2.70;;;2.50;;
42194;SDS011;27863;49.440;11.102;2023-11-21T07:34:48;3.00;;;2.70;;
42194;SDS011;27863;49.440;11.102;2023-11-21T07:37:48;2.90;;;2.10;;
42194;SDS011;27863;49.440;11.102;2023-11-21T07:40:51;3.03;;;2.53;;
42194;SDS011;27863;49.440;11.102;2023-11-21T07:43:54;3.80;;;2.47;;
42194;SDS011;27863;49.440;11.102;2023-11-21T07:46:56;3.33;;;2.43;;
42194;SDS011;27863;49.440;11.102;2023-11-21T07:50:08;2.77;;;2.20;;
42194;SDS011;27863;49.440;11.102;2023-11-21T07:53:09;2.90;;;2.47;;
42194;SDS011;27863;49.440;11.102;2023-11-21T07:56:09;2.70;;;2.50;;
42194;SDS011;27863;49.440;11.102;2023-11-21T07:59:10;2.20;;;1.93;;
42194;SDS011;27863;49.440;11.102;2023-11-21T08:02:12;3.63;;;2.30;;
42194;SDS011;27863;49.440;11.102;2023-11-21T08:05:13;3.20;;;2.60;;
42194;SDS011;27863;49.440;11.102;2023-11-21T08:08:14;2.97;;;2.67;;
42194;SDS011;27863;49.440;11.102;2023-11-21T08:11:15;2.80;;;2.30;;
42194;SDS011;27863;49.440;11.102;2023-11-21T08:14:16;3.23;;;2.60;;
42194;SDS011;27863;49.440;11.102;2023-11-21T08:17:17;3.20;;;2.87;;
42194;SDS011;27863;49.440;11.102;2023-11-21T08:20:20;4.07;;;2.63;;
42194;SDS011;27863;49.440;11.102;2023-11-21T08:23:22;3.10;;;2.70;;
42194;SDS011;27863;49.440;11.102;2023-11-21T08:26:26;3.53;;;2.67;;
42194;SDS011;27863;49.440;11.102;2023-11-21T08:29:26;3.77;;;2.37;;
42194;SDS011;27863;49.440;11.102;2023-11-21T08:32:27;3.63;;;3.07;;
42194;SDS011;27863;49.440;11.102;2023-11-21T08:35:27;4.13;;;3.73;;
42194;SDS011;27863;49.440;11.102;2023-11-21T08:38:28;4.07;;;3.27;;
42194;SDS011;27863;49.440;11.102;2023-11-21T08:41:29;4.40;;;3.97;;
42194;SDS011;27863;49.440;11.102;2023-11-21T08:44:30;5.43;;;3.40;;
42194;SDS011;27863;49.440;11.102;2023-11-21T08:47:31;3.87;;;3.43;;
42194;SDS011;27863;49.440;11.102;2023-11-21T08:50:33;3.77;;;3.37;;
42194;SDS011;27863;49.440;11.102;2023-11-21T08:53:34;4.47;;;3.87;;
42194;SDS011;27863;49.440;11.102;2023-11-21T08:56:34;4.30;;;3.90;;
42194;SDS011;27863;49.440;11.102;2023-11-21T08:59:35;3.53;;;3.23;;
42194;SDS011;27863;49.440;11.102;2023-11-21T09:02:37;2.93;;;2.73;;
42194;SDS011;27863;49.440;11.102;2023-11-21T09:05:41;4.07;;;3.30;;
42194;SDS011;27863;49.440;11.102;2023-11-21T09:08:42;3.97;;;3.40;;
42194;SDS011;27863;49.440;11.102;2023-11-21T09:11:43;3.93;;;3.63;;
42194;SDS011;27863;49.440;11.102;2023-11-21T09:14:46;4.53;;;4.13;;
42194;SDS011;27863;49.440;11.102;2023-11-21T09:17:47;4.50;;;4.10;;
42194;SDS011;27863;49.440;11.102;2023-11-21T09:20:48;4.67;;;3.90;;
42194;SDS011;27863;49.440;11.102;2023-11-21T09:23:49;4.87;;;4.37;;
42194;SDS011;27863;49.440;11.102;2023-11-21T09:26:49;5.70;;;4.60;;
42194;SDS011;27863;49.440;11.102;2023-11-21T09:29:50;5.27;;;4.87;;
42194;SDS011;27863;49.440;11.102;2023-11-21T09:32:50;5.40;;;4.93;;
42194;SDS011;27863;49.440;11.102;2023-11-21T09:35:51;5.17;;;4.77;;
42194;SDS011;27863;49.440;11.102;2023-11-21T09:38:52;5.13;;;4.73;;
42194;SDS011;27863;49.440;11.102;2023-11-21T09:41:57;8.57;;;4.77;;
42194;SDS011;27863;49.440;11.102;2023-11-21T09:45:15;5.53;;;5.03;;
42194;SDS011;27863;49.440;11.102;2023-11-21T09:48:20;6.60;;;5.47;;
42194;SDS011;27863;49.440;11.102;2023-11-21T09:51:21;7.13;;;5.00;;
42194;SDS011;27863;49.440;11.102;2023-11-21T09:54:25;5.63;;;4.83;;
42194;SDS011;27863;49.440;11.102;2023-11-21T09:57:26;5.50;;;5.00;;
42194;SDS011;27863;49.440;11.102;2023-11-21T10:00:29;7.47;;;4.87;;
42194;SDS011;27863;49.440;11.102;2023-11-21T10:03:35;5.27;;;4.87;;
42194;SDS011;27863;49.440;11.102;2023-11-21T10:06:40;4.87;;;4.47;;
42194;SDS011;27863;49.440;11.102;2023-11-21T10:09:41;5.43;;;4.30;;
42194;SDS011;27863;49.440;11.102;2023-11-21T10:12:42;4.53;;;4.23;;
42194;SDS011;27863;49.440;11.102;2023-11-21T10:15:44;4.53;;;4.23;;
42194;SDS011;27863;49.440;11.102;2023-11-21T10:18:49;5.63;;;4.97;;
42194;SDS011;27863;49.440;11.102;2023-11-21T10:21:52;3.80;;;3.50;;
42194;SDS011;27863;49.440;11.102;2023-11-21T10:24:54;5.07;;;3.77;;
42194;SDS011;27863;49.440;11.102;2023-11-21T10:27:57;4.47;;;4.07;;
42194;SDS011;27863;49.440;11.102;2023-11-21T10:31:00;5.00;;;4.50;;
42194;SDS011;27863;49.440;11.102;2023-11-21T10:34:14;4.30;;;4.00;;
42194;SDS011;27863;49.440;11.102;2023-11-21T10:37:15;4.10;;;3.70;;
42194;SDS011;27863;49.440;11.102;2023-11-21T10:40:16;3.83;;;3.53;;
42194;SDS011;27863;49.440;11.102;2023-11-21T10:43:17;3.67;;;3.37;;
42194;SDS011;27863;49.440;11.102;2023-11-21T10:46:18;3.83;;;3.43;;
42194;SDS011;27863;49.440;11.102;2023-11-21T10:49:22;4.40;;;3.40;;
42194;SDS011;27863;49.440;11.102;2023-11-21T10:52:27;3.63;;;3.37;;
42194;SDS011;27863;49.440;11.102;2023-11-21T10:55:27;3.47;;;3.17;;
42194;SDS011;27863;49.440;11.102;2023-11-21T10:58:28;3.53;;;2.90;;
42194;SDS011;27863;49.440;11.102;2023-11-21T11:01:29;2.93;;;2.63;;
42194;SDS011;27863;49.440;11.102;2023-11-21T11:04:30;3.43;;;3.00;;
42194;SDS011;27863;49.440;11.102;2023-11-21T11:07:31;3.67;;;2.67;;
42194;SDS011;27863;49.440;11.102;2023-11-21T11:10:34;3.30;;;3.00;;
42194;SDS011;27863;49.440;11.102;2023-11-21T11:13:35;4.30;;;3.27;;
42194;SDS011;27863;49.440;11.102;2023-11-21T11:16:36;4.30;;;3.07;;
42194;SDS011;27863;49.440;11.102;2023-11-21T11:19:40;4.43;;;3.30;;
42194;SDS011;27863;49.440;11.102;2023-11-21T11:23:29;2.90;;;2.70;;
42194;SDS011;27863;49.440;11.102;2023-11-21T11:26:12;2.90;;;2.60;;
42194;SDS011;27863;49.440;11.102;2023-11-21T11:39:40;2.47;;;2.20;;
42194;SDS011;27863;49.440;11.102;2023-11-21T11:42:57;3.23;;;2.93;;
42194;SDS011;27863;49.440;11.102;2023-11-21T11:46:03;3.00;;;2.37;;
42194;SDS011;27863;49.440;11.102;2023-11-21T11:49:04;2.10;;;1.90;;
42194;SDS011;27863;49.440;11.102;2023-11-21T11:55:36;2.40;;;2.20;;
42194;SDS011;27863;49.440;11.102;2023-11-21T11:58:37;2.93;;;2.10;;
42194;SDS011;27863;49.440;11.102;2023-11-21T12:01:38;2.43;;;1.90;;
42194;SDS011;27863;49.440;11.102;2023-11-21T12:04:40;5.50;;;2.60;;
42194;SDS011;27863;49.440;11.102;2023-11-21T12:07:54;3.97;;;2.27;;
42194;SDS011;27863;49.440;11.102;2023-11-21T12:10:57;3.20;;;2.47;;
42194;SDS011;27863;49.440;11.102;2023-11-21T12:13:58;2.37;;;2.17;;
42194;SDS011;27863;49.440;11.102;2023-11-21T12:17:00;2.97;;;2.77;;
42194;SDS011;27863;49.440;11.102;2023-11-21T12:20:04;2.47;;;2.23;;
42194;SDS011;27863;49.440;11.102;2023-11-21T12:23:06;2.83;;;2.50;;
42194;SDS011;27863;49.440;11.102;2023-11-21T12:26:11;2.70;;;2.50;;
42194;SDS011;27863;49.440;11.102;2023-11-21T12:29:13;2.60;;;2.40;;
42194;SDS011;27863;49.440;11.102;2023-11-21T12:32:15;2.87;;;2.57;;
42194;SDS011;27863;49.440;11.102;2023-11-21T12:35:18;3.87;;;2.87;;
42194;SDS011;27863;49.440;11.102;2023-11-21T12:38:22;2.93;;;2.70;;
42194;SDS011;27863;49.440;11.102;2023-11-21T12:41:30;2.73;;;2.53;;
42194;SDS011;27863;49.440;11.102;2023-11-21T12:44:31;2.70;;;2.50;;
42194;SDS011;27863;49.440;11.102;2023-11-21T12:47:33;3.13;;;2.83;;
42194;SDS011;27863;49.440;11.102;2023-11-21T12:50:37;3.60;;;3.30;;
42194;SDS011;27863;49.440;11.102;2023-11-21T12:53:38;2.93;;;2.73;;
42194;SDS011;27863;49.440;11.102;2023-11-21T12:56:39;4.10;;;3.13;;
42194;SDS011;27863;49.440;11.102;2023-11-21T12:59:40;2.80;;;2.60;;
42194;SDS011;27863;49.440;11.102;2023-11-21T13:02:43;4.57;;;3.50;;
42194;SDS011;27863;49.440;11.102;2023-11-21T13:05:45;6.40;;;3.73;;
42194;SDS011;27863;49.440;11.102;2023-11-21T13:08:50;4.00;;;3.60;;
42194;SDS011;27863;49.440;11.102;2023-11-21T13:11:51;3.93;;;3.53;;
42194;SDS011;27863;49.440;11.102;2023-11-21T13:15:03;3.67;;;3.37;;
42194;SDS011;27863;49.440;11.102;2023-11-21T13:18:09;5.47;;;3.40;;
42194;SDS011;27863;49.440;11.102;2023-11-21T13:21:11;4.43;;;3.73;;
42194;SDS011;27863;49.440;11.102;2023-11-21T13:24:13;4.20;;;3.20;;
42194;SDS011;27863;49.440;11.102;2023-11-21T13:27:14;3.27;;;2.70;;
42194;SDS011;27863;49.440;11.102;2023-11-21T13:30:15;5.27;;;3.37;;
42194;SDS011;27863;49.440;11.102;2023-11-21T13:33:16;6.27;;;4.03;;
42194;SDS011;27863;49.440;11.102;2023-11-21T13:36:25;3.70;;;3.17;;
42194;SDS011;27863;49.440;11.102;2023-11-21T13:39:25;3.67;;;3.37;;
42194;SDS011;27863;49.440;11.102;2023-11-21T13:42:28;4.87;;;4.03;;
42194;SDS011;27863;49.440;11.102;2023-11-21T13:45:29;3.53;;;3.03;;
42194;SDS011;27863;49.440;11.102;2023-11-21T13:48:30;4.63;;;3.30;;
42194;SDS011;27863;49.440;11.102;2023-11-21T13:51:50;4.70;;;3.27;;
42194;SDS011;27863;49.440;11.102;2023-11-21T13:54:54;3.97;;;3.43;;
42194;SDS011;27863;49.440;11.102;2023-11-21T13:57:56;3.23;;;3.00;;
42194;SDS011;27863;49.440;11.102;2023-11-21T14:00:57;3.60;;;3.30;;
42194;SDS011;27863;49.440;11.102;2023-11-21T14:03:57;6.53;;;2.90;;
42194;SDS011;27863;49.440;11.102;2023-11-21T14:07:18;4.07;;;2.93;;
42194;SDS011;27863;49.440;11.102;2023-11-21T14:10:39;3.53;;;3.10;;
42194;SDS011;27863;49.440;11.102;2023-11-21T14:13:50;3.07;;;2.70;;
42194;SDS011;27863;49.440;11.102;2023-11-21T14:16:51;2.17;;;1.97;;
42194;SDS011;27863;49.440;11.102;2023-11-21T14:19:51;2.40;;;2.20;;
42194;SDS011;27863;49.440;11.102;2023-11-21T14:22:52;4.13;;;2.27;;
42194;SDS011;27863;49.440;11.102;2023-11-21T14:25:54;5.13;;;3.07;;
42194;SDS011;27863;49.440;11.102;2023-11-21T14:28:57;3.70;;;2.83;;
42194;SDS011;27863;49.440;11.102;2023-11-21T14:32:03;2.30;;;2.10;;
42194;SDS011;27863;49.440;11.102;2023-11-21T14:35:05;4.90;;;2.50;;
42194;SDS011;27863;49.440;11.102;2023-11-21T14:38:10;2.47;;;2.27;;
42194;SDS011;27863;49.440;11.102;2023-11-21T14:41:14;4.43;;;2.43;;
42194;SDS011;27863;49.440;11.102;2023-11-21T14:44:14;2.17;;;1.93;;
42194;SDS011;27863;49.440;11.102;2023-11-21T14:47:15;2.60;;;2.40;;
42194;SDS011;27863;49.440;11.102;2023-11-21T14:50:17;3.03;;;1.97;;
42194;SDS011;27863;49.440;11.102;2023-11-21T14:53:41;2.50;;;2.30;;
42194;SDS011;27863;49.440;11.102;2023-11-21T14:56:55;2.90;;;2.70;;
42194;SDS011;27863;49.440;11.102;2023-11-21T14:59:55;2.73;;;2.30;;
42194;SDS011;27863;49.440;11.102;2023-11-21T15:02:58;4.60;;;2.33;;
42194;SDS011;27863;49.440;11.102;2023-11-21T15:05:59;2.57;;;2.37;;
42194;SDS011;27863;49.440;11.102;2023-11-21T15:09:19;2.90;;;2.60;;
42194;SDS011;27863;49.440;11.102;2023-11-21T15:12:22;3.93;;;2.90;;
42194;SDS011;27863;49.440;11.102;2023-11-21T15:15:26;2.53;;;2.10;;
42194;SDS011;27863;49.440;11.102;2023-11-21T15:18:32;2.97;;;2.67;;
42194;SDS011;27863;49.440;11.102;2023-11-21T15:21:36;4.40;;;2.50;;
42194;SDS011;27863;49.440;11.102;2023-11-21T15:24:36;3.83;;;3.23;;
42194;SDS011;27863;49.440;11.102;2023-11-21T15:27:37;3.30;;;2.67;;
42194;SDS011;27863;49.440;11.102;2023-11-21T15:30:38;3.37;;;2.60;;
42194;SDS011;27863;49.440;11.102;2023-11-21T15:33:38;3.73;;;3.10;;
42194;SDS011;27863;49.440;11.102;2023-11-21T15:36:39;4.43;;;3.57;;
42194;SDS011;27863;49.440;11.102;2023-11-21T15:39:39;3.97;;;2.87;;
42194;SDS011;27863;49.440;11.102;2023-11-21T15:42:40;8.93;;;3.20;;
42194;SDS011;27863;49.440;11.102;2023-11-21T15:45:41;3.70;;;2.90;;
42194;SDS011;27863;49.440;11.102;2023-11-21T15:48:41;3.03;;;2.73;;
42194;SDS011;27863;49.440;11.102;2023-11-21T15:51:49;4.63;;;3.10;;
42194;SDS011;27863;49.440;11.102;2023-11-21T15:54:54;4.73;;;3.27;;
42194;SDS011;27863;49.440;11.102;2023-11-21T15:57:55;7.50;;;3.77;;
42194;SDS011;27863;49.440;11.102;2023-11-21T16:01:00;4.37;;;3.10;;
42194;SDS011;27863;49.440;11.102;2023-11-21T16:04:01;5.77;;;3.90;;
42194;SDS011;27863;49.440;11.102;2023-11-21T16:07:04;4.83;;;2.93;;
42194;SDS011;27863;49.440;11.102;2023-11-21T16:10:07;5.10;;;3.23;;
42194;SDS011;27863;49.440;11.102;2023-11-21T16:13:10;3.23;;;2.40;;
42194;SDS011;27863;49.440;11.102;2023-11-21T16:16:11;4.63;;;3.97;;
42194;SDS011;27863;49.440;11.102;2023-11-21T16:19:12;5.60;;;3.70;;
42194;SDS011;27863;49.440;11.102;2023-11-21T16:22:13;8.23;;;3.53;;
42194;SDS011;27863;49.440;11.102;2023-11-21T16:25:14;4.10;;;3.30;;
42194;SDS011;27863;49.440;11.102;2023-11-21T16:28:14;4.57;;;3.27;;
42194;SDS011;27863;49.440;11.102;2023-11-21T16:31:21;6.80;;;3.57;;
42194;SDS011;27863;49.440;11.102;2023-11-21T16:34:23;5.57;;;3.90;;
42194;SDS011;27863;49.440;11.102;2023-11-21T16:37:23;9.97;;;2.90;;
42194;SDS011;27863;49.440;11.102;2023-11-21T16:40:24;5.23;;;3.33;;
42194;SDS011;27863;49.440;11.102;2023-11-21T16:43:25;4.60;;;3.57;;
42194;SDS011;27863;49.440;11.102;2023-11-21T16:46:25;4.70;;;3.80;;
42194;SDS011;27863;49.440;11.102;2023-11-21T16:49:27;5.03;;;3.90;;
42194;SDS011;27863;49.440;11.102;2023-11-21T16:52:29;4.13;;;2.97;;
42194;SDS011;27863;49.440;11.102;2023-11-21T16:55:31;4.77;;;3.47;;
42194;SDS011;27863;49.440;11.102;2023-11-21T16:58:32;7.23;;;5.17;;
42194;SDS011;27863;49.440;11.102;2023-11-21T17:01:33;5.03;;;4.17;;
42194;SDS011;27863;49.440;11.102;2023-11-21T17:04:34;4.37;;;3.87;;
42194;SDS011;27863;49.440;11.102;2023-11-21T17:07:34;5.70;;;4.33;;
42194;SDS011;27863;49.440;11.102;2023-11-21T17:10:35;7.63;;;4.20;;
42194;SDS011;27863;49.440;11.102;2023-11-21T17:13:35;7.60;;;4.77;;
42194;SDS011;27863;49.440;11.102;2023-11-21T17:16:37;8.50;;;7.70;;
42194;SDS011;27863;49.440;11.102;2023-11-21T17:19:41;8.10;;;5.10;;
42194;SDS011;27863;49.440;11.102;2023-11-21T17:22:43;5.97;;;4.30;;
42194;SDS011;27863;49.440;11.102;2023-11-21T17:25:44;6.00;;;5.50;;
42194;SDS011;27863;49.440;11.102;2023-11-21T17:28:44;8.03;;;5.93;;
42194;SDS011;27863;49.440;11.102;2023-11-21T17:31:45;5.23;;;4.60;;
42194;SDS011;27863;49.440;11.102;2023-11-21T17:34:48;5.63;;;4.37;;
42194;SDS011;27863;49.440;11.102;2023-11-21T17:37:48;6.07;;;4.47;;
42194;SDS011;27863;49.440;11.102;2023-11-21T17:40:49;6.40;;;5.80;;
42194;SDS011;27863;49.440;11.102;2023-11-21T17:43:49;4.60;;;4.10;;
42194;SDS011;27863;49.440;11.102;2023-11-21T17:46:50;7.23;;;4.70;;
42194;SDS011;27863;49.440;11.102;2023-11-21T17:49:51;6.97;;;4.70;;
42194;SDS011;27863;49.440;11.102;2023-11-21T17:52:51;5.37;;;4.60;;
42194;SDS011;27863;49.440;11.102;2023-11-21T17:55:52;9.17;;;4.80;;
42194;SDS011;27863;49.440;11.102;2023-11-21T17:58:53;5.83;;;5.23;;
42194;SDS011;27863;49.440;11.102;2023-11-21T18:01:54;4.70;;;4.27;;
42194;SDS011;27863;49.440;11.102;2023-11-21T18:04:56;5.37;;;3.87;;
42194;SDS011;27863;49.440;11.102;2023-11-21T18:07:57;5.00;;;4.40;;
42194;SDS011;27863;49.440;11.102;2023-11-21T18:10:57;5.03;;;3.73;;
42194;SDS011;27863;49.440;11.102;2023-11-21T18:13:59;5.47;;;3.70;;